Time;durP1;ratioP1;P1;durP2;ratioP2;P2;SDS_P1;SDS_P2;PMS_P1;PMS_P2;Temp;Humidity;BMP_temperature;BMP_pressure;BME280_temperature;BME280_humidity;BME280_pressure;Samples;Min_cycle;Max_cycle;Signal;HPM_P1;HPM_P2
2021/09/02 00:01:41;;;;;;;23.48;8.85;;;;;;;12.74;100.00;102598.47;4993027;28;20105;-81
2021/09/02 00:04:07;;;;;;;22.85;8.07;;;;;;;12.75;100.00;102608.91;4975165;28;20814;-79
2021/09/02 00:06:32;;;;;;;25.48;9.65;;;;;;;12.75;100.00;102603.63;4958836;28;20042;-78
2021/09/02 00:08:58;;;;;;;26.48;8.95;;;;;;;12.74;100.00;102604.59;4975002;28;20038;-80
2021/09/02 00:11:23;;;;;;;20.45;8.77;;;;;;;12.67;100.00;102598.09;4955245;28;20144;-80
2021/09/02 00:13:49;;;;;;;24.50;9.00;;;;;;;12.65;100.00;102595.56;4975240;28;20035;-81
2021/09/02 00:16:14;;;;;;;22.75;9.60;;;;;;;12.65;100.00;102592.09;4954928;28;20030;-80
2021/09/02 00:18:40;;;;;;;27.50;9.85;;;;;;;12.63;100.00;102592.22;4956081;28;20639;-81
2021/09/02 00:21:06;;;;;;;29.45;11.15;;;;;;;12.55;100.00;102589.31;4942345;28;20074;-80
2021/09/02 00:23:31;;;;;;;24.92;10.00;;;;;;;12.51;100.00;102587.88;4991096;28;20504;-80
2021/09/02 00:26:10;;;;;;;23.35;9.85;;;;;;;12.49;100.00;102586.31;4962185;28;20038;-80
2021/09/02 00:28:36;;;;;;;29.00;11.68;;;;;;;12.51;100.00;102598.41;4958129;28;20038;-80
2021/09/02 00:31:02;;;;;;;30.17;11.02;;;;;;;12.50;100.00;102603.78;4967493;28;20042;-79
2021/09/02 00:33:32;;;;;;;25.45;10.65;;;;;;;12.46;100.00;102590.00;4953556;28;20026;-80
2021/09/02 00:35:58;;;;;;;24.38;10.45;;;;;;;12.44;100.00;102589.28;4940573;28;20041;-81
2021/09/02 00:38:24;;;;;;;25.80;10.60;;;;;;;12.38;100.00;102598.47;4973634;28;20034;-79
2021/09/02 00:40:49;;;;;;;26.23;10.45;;;;;;;12.24;100.00;102573.19;4974488;28;20041;-81
2021/09/02 00:43:15;;;;;;;26.02;10.40;;;;;;;12.30;100.00;102587.69;4973799;28;20038;-80
2021/09/02 00:45:40;;;;;;;23.58;9.25;;;;;;;12.24;100.00;102574.94;4973854;28;20060;-80
2021/09/02 00:48:06;;;;;;;31.98;10.70;;;;;;;12.38;100.00;102587.13;4974178;28;20508;-81
2021/09/02 00:50:33;;;;;;;25.75;9.75;;;;;;;12.34;100.00;102594.41;4958594;28;20497;-81
2021/09/02 00:53:03;;;;;;;23.42;8.95;;;;;;;12.33;100.00;102592.69;4985763;28;20052;-80
2021/09/02 00:55:32;;;;;;;22.58;9.38;;;;;;;12.32;100.00;102595.44;4993341;28;20479;-81
2021/09/02 00:57:59;;;;;;;23.27;10.27;;;;;;;12.29;100.00;102595.69;4943138;28;20708;-83
2021/09/02 01:00:25;;;;;;;25.55;9.07;;;;;;;12.17;100.00;102573.75;4976093;28;20026;-82
2021/09/02 01:02:52;;;;;;;22.27;8.52;;;;;;;12.19;100.00;102585.00;4968976;28;20034;-83
2021/09/02 01:05:19;;;;;;;21.35;9.32;;;;;;;12.15;100.00;102584.38;4940559;28;20093;-81
2021/09/02 01:07:45;;;;;;;23.02;9.55;;;;;;;11.95;100.00;102561.31;4973993;28;20571;-80
2021/09/02 01:10:11;;;;;;;20.45;8.98;;;;;;;11.96;100.00;102576.13;4955072;28;20030;-81
2021/09/02 01:12:38;;;;;;;17.98;8.68;;;;;;;11.96;100.00;102576.97;4956876;28;20493;-80
2021/09/02 01:15:06;;;;;;;15.77;8.10;;;;;;;11.92;100.00;102580.75;4965673;28;20097;-82
2021/09/02 01:17:32;;;;;;;21.23;8.63;;;;;;;11.82;100.00;102582.34;4966958;28;20066;-80
2021/09/02 01:19:58;;;;;;;28.70;8.82;;;;;;;11.79;100.00;102582.56;4959542;28;20074;-81
2021/09/02 01:22:26;;;;;;;19.33;8.20;;;;;;;11.71;100.00;102569.13;4935421;28;20037;-82
2021/09/02 01:24:57;;;;;;;20.25;8.60;;;;;;;11.68;100.00;102571.03;4955394;28;20060;-81
2021/09/02 01:27:26;;;;;;;25.55;9.30;;;;;;;11.69;100.00;102572.69;4970991;28;20031;-80
2021/09/02 01:30:03;;;;;;;20.40;8.05;;;;;;;11.69;100.00;102577.94;4986441;28;20086;-81
2021/09/02 01:32:34;;;;;;;22.13;8.27;;;;;;;11.66;100.00;102574.72;4939970;28;20039;-83
2021/09/02 01:35:00;;;;;;;19.83;8.00;;;;;;;11.67;100.00;102579.03;4980462;28;20495;-80
2021/09/02 01:37:37;;;;;;;19.92;8.48;;;;;;;11.71;100.00;102577.03;4942497;28;20748;-79
2021/09/02 01:40:02;;;;;;;23.48;9.15;;;;;;;11.72;100.00;102570.81;4987990;28;20044;-80
2021/09/02 01:42:29;;;;;;;16.20;8.60;;;;;;;11.71;100.00;102563.88;4959409;28;20489;-81
2021/09/02 01:44:54;;;;;;;14.65;8.05;;;;;;;11.78;100.00;102565.13;4957399;28;20096;-82
2021/09/02 01:47:26;;;;;;;13.98;7.70;;;;;;;11.69;100.00;102548.22;4970504;28;20053;-81
2021/09/02 01:49:53;;;;;;;15.23;8.18;;;;;;;11.81;100.00;102559.63;4971974;28;20033;-84
2021/09/02 01:52:22;;;;;;;16.52;8.52;;;;;;;11.91;100.00;102576.47;4945137;28;20027;-82
2021/09/02 01:54:48;;;;;;;18.35;8.25;;;;;;;11.96;100.00;102566.47;4973490;28;20042;-80
2021/09/02 01:57:15;;;;;;;18.33;8.23;;;;;;;11.98;100.00;102572.44;4967466;28;20038;-80
2021/09/02 01:59:41;;;;;;;16.92;8.25;;;;;;;11.95;100.00;102569.19;4959516;28;20542;-81
2021/09/02 02:02:07;;;;;;;17.70;8.80;;;;;;;12.02;100.00;102578.34;4941598;28;20117;-82
2021/09/02 02:04:33;;;;;;;15.90;8.57;;;;;;;12.04;100.00;102579.06;4973529;28;20033;-82
2021/09/02 02:06:59;;;;;;;22.17;8.05;;;;;;;12.12;100.00;102574.06;4974336;28;20046;-82
2021/09/02 02:09:24;;;;;;;16.27;8.75;;;;;;;12.13;100.00;102583.66;4962552;28;20030;-79
2021/09/02 02:11:50;;;;;;;15.77;9.27;;;;;;;12.11;100.00;102579.44;4989738;28;20632;-80
2021/09/02 02:14:15;;;;;;;23.70;9.30;;;;;;;12.17;100.00;102579.84;4965638;28;20034;-80
2021/09/02 02:16:40;;;;;;;19.42;8.85;;;;;;;12.20;100.00;102581.41;4982054;28;20578;-80
2021/09/02 02:19:06;;;;;;;21.85;9.40;;;;;;;12.27;100.00;102582.63;4989843;28;20038;-83
2021/09/02 02:21:31;;;;;;;17.35;8.65;;;;;;;12.27;100.00;102577.38;4974476;28;20432;-81
2021/09/02 02:23:57;;;;;;;17.23;9.05;;;;;;;12.30;100.00;102571.91;4941158;28;20061;-81
2021/09/02 02:26:22;;;;;;;17.00;8.68;;;;;;;12.30;100.00;102574.53;4939555;28;20039;-82
2021/09/02 02:28:48;;;;;;;17.85;8.45;;;;;;;12.36;100.00;102583.75;4961120;28;20026;-80
2021/09/02 02:31:13;;;;;;;16.35;8.95;;;;;;;12.27;100.00;102570.31;4958704;28;20070;-80
2021/09/02 02:33:39;;;;;;;18.05;9.23;;;;;;;12.29;100.00;102575.47;4978958;28;20041;-80
2021/09/02 02:36:05;;;;;;;19.45;9.40;;;;;;;12.28;100.00;102571.13;4981150;28;20046;-80
2021/09/02 02:38:30;;;;;;;16.85;8.57;;;;;;;12.30;100.00;102578.94;4965224;28;20034;-80
2021/09/02 02:40:56;;;;;;;20.23;9.05;;;;;;;12.35;100.00;102572.38;4973677;28;20078;-82
2021/09/02 02:43:21;;;;;;;16.45;8.65;;;;;;;12.39;100.00;102581.72;4963656;28;20042;-81
2021/09/02 02:45:47;;;;;;;24.55;9.60;;;;;;;12.42;100.00;102570.97;4981661;28;20041;-80
2021/09/02 02:48:12;;;;;;;21.17;9.43;;;;;;;12.43;100.00;102566.53;4960972;28;20042;-80
2021/09/02 02:50:38;;;;;;;17.33;8.40;;;;;;;12.44;100.00;102569.06;4962840;28;20759;-80
2021/09/02 02:53:03;;;;;;;17.08;8.18;;;;;;;12.35;100.00;102558.38;4981196;28;20042;-78
2021/09/02 02:55:29;;;;;;;21.25;8.98;;;;;;;12.26;100.00;102567.78;4985222;28;20125;-79
2021/09/02 02:57:55;;;;;;;17.08;8.35;;;;;;;12.24;100.00;102564.44;4970000;28;20785;-81
2021/09/02 03:00:21;;;;;;;18.48;8.80;;;;;;;12.17;100.00;102561.44;4963674;28;20054;-80
2021/09/02 03:02:46;;;;;;;22.35;9.20;;;;;;;12.08;100.00;102568.19;4981968;28;20038;-80
2021/09/02 03:05:12;;;;;;;16.70;8.05;;;;;;;11.97;100.00;102546.25;4981181;28;20085;-81
2021/09/02 03:07:37;;;;;;;17.80;8.10;;;;;;;12.02;100.00;102555.50;4980759;28;20046;-80
2021/09/02 03:10:05;;;;;;;19.35;8.48;;;;;;;12.02;100.00;102563.38;4960962;28;20039;-80
2021/09/02 03:12:30;;;;;;;19.35;9.07;;;;;;;12.01;100.00;102552.97;4989933;28;20061;-78
2021/09/02 03:14:56;;;;;;;22.40;8.82;;;;;;;12.02;100.00;102552.88;4962211;28;20503;-80
2021/09/02 03:17:21;;;;;;;17.85;7.95;;;;;;;12.00;100.00;102565.28;4963580;28;20049;-80
2021/09/02 03:19:48;;;;;;;14.23;8.32;;;;;;;12.05;100.00;102570.19;4963720;28;20039;-79
2021/09/02 03:22:13;;;;;;;16.05;7.40;;;;;;;12.02;100.00;102560.75;4964473;28;20042;-80
2021/09/02 03:24:39;;;;;;;16.85;8.15;;;;;;;11.99;100.00;102565.41;4998730;28;20138;-81
2021/09/02 03:27:05;;;;;;;15.68;7.90;;;;;;;11.96;100.00;102557.72;4949869;28;20117;-81
2021/09/02 03:29:30;;;;;;;13.98;7.82;;;;;;;11.87;100.00;102552.16;4976778;28;20053;-82
2021/09/02 03:31:55;;;;;;;15.20;7.70;;;;;;;11.71;100.00;102538.41;4960636;28;20050;-80
2021/09/02 03:34:21;;;;;;;17.95;8.32;;;;;;;11.74;100.00;102553.97;4980628;28;20120;-79
2021/09/02 03:36:47;;;;;;;21.67;8.48;;;;;;;11.73;100.00;102569.88;4980783;28;20101;-80
2021/09/02 03:39:13;;;;;;;14.07;7.60;;;;;;;11.67;100.00;102568.50;4962548;28;20048;-79
2021/09/02 03:41:40;;;;;;;15.90;7.95;;;;;;;11.62;100.00;102568.84;4979603;28;20026;-81
2021/09/02 03:44:06;;;;;;;17.55;8.45;;;;;;;11.58;100.00;102566.53;4971555;28;20042;-77
2021/09/02 03:46:31;;;;;;;21.85;8.25;;;;;;;11.59;100.00;102578.72;4964203;28;20045;-79
2021/09/02 03:48:57;;;;;;;16.00;8.38;;;;;;;11.57;100.00;102584.09;4953811;28;20038;-78
2021/09/02 03:51:22;;;;;;;13.13;7.30;;;;;;;11.49;100.00;102563.63;4964856;28;20042;-80
2021/09/02 03:53:48;;;;;;;14.55;7.45;;;;;;;11.63;100.00;102575.78;4996611;28;20034;-80
2021/09/02 03:56:13;;;;;;;16.05;7.97;;;;;;;11.71;100.00;102574.38;4966094;28;20121;-80
2021/09/02 03:58:39;;;;;;;16.90;7.50;;;;;;;11.76;100.00;102581.00;4978159;28;20061;-80
2021/09/02 04:01:04;;;;;;;13.63;7.20;;;;;;;11.80;100.00;102577.19;4996745;28;20030;-80
2021/09/02 04:03:30;;;;;;;16.67;7.93;;;;;;;11.86;100.00;102583.81;4947478;28;20038;-78
2021/09/02 04:05:55;;;;;;;17.42;7.28;;;;;;;11.84;100.00;102572.56;4962579;28;20073;-79
2021/09/02 04:08:21;;;;;;;19.20;7.80;;;;;;;11.98;100.00;102572.44;4961475;28;20068;-79
2021/09/02 04:10:46;;;;;;;17.05;7.80;;;;;;;12.07;100.00;102587.56;4971915;28;20041;-80
2021/09/02 04:13:11;;;;;;;19.42;8.63;;;;;;;12.07;100.00;102574.41;4942242;28;20089;-80
2021/09/02 04:15:37;;;;;;;13.30;7.32;;;;;;;12.14;100.00;102571.34;4962573;28;20046;-80
2021/09/02 04:18:02;;;;;;;20.83;8.18;;;;;;;12.21;100.00;102593.63;4961925;28;20031;-80
2021/09/02 04:20:28;;;;;;;15.90;7.65;;;;;;;12.20;100.00;102590.13;4962935;28;20081;-79
2021/09/02 04:22:53;;;;;;;18.17;7.78;;;;;;;12.18;100.00;102583.31;4979335;28;20810;-79
2021/09/02 04:25:20;;;;;;;18.90;7.95;;;;;;;12.15;100.00;102586.16;4994891;28;20035;-80
2021/09/02 04:27:45;;;;;;;15.93;7.43;;;;;;;12.08;100.00;102577.88;4977391;28;20096;-80
2021/09/02 04:30:13;;;;;;;16.92;7.97;;;;;;;12.15;100.00;102587.00;4942493;28;20520;-80
2021/09/02 04:32:40;;;;;;;18.20;8.20;;;;;;;12.13;100.00;102588.91;4975074;28;20026;-78
2021/09/02 04:35:06;;;;;;;16.23;7.60;;;;;;;12.14;100.00;102587.13;4961883;28;20484;-80
2021/09/02 04:37:39;;;;;;;21.65;8.70;;;;;;;12.11;100.00;102587.31;4956397;28;20035;-82
2021/09/02 04:40:06;;;;;;;21.40;9.13;;;;;;;12.08;100.00;102589.22;4974543;28;20034;-81
2021/09/02 04:42:32;;;;;;;17.42;7.95;;;;;;;12.01;100.00;102577.47;4960350;28;20035;-81
2021/09/02 04:44:59;;;;;;;16.17;8.20;;;;;;;12.08;100.00;102591.88;4959723;28;20117;-81
2021/09/02 04:47:25;;;;;;;16.38;8.82;;;;;;;12.12;100.00;102587.22;4976990;28;20567;-77
2021/09/02 04:49:51;;;;;;;21.98;8.82;;;;;;;12.15;100.00;102588.78;4989647;28;20105;-78
2021/09/02 04:52:16;;;;;;;16.58;8.63;;;;;;;12.15;100.00;102584.38;4956581;28;20498;-81
2021/09/02 04:54:42;;;;;;;19.13;8.70;;;;;;;12.19;100.00;102596.34;4960618;28;20118;-80
2021/09/02 04:57:07;;;;;;;19.83;8.55;;;;;;;12.15;100.00;102583.50;4957549;28;20493;-79
2021/09/02 04:59:33;;;;;;;20.02;9.00;;;;;;;12.22;100.00;102587.38;4960624;28;20038;-79
2021/09/02 05:01:58;;;;;;;20.95;9.75;;;;;;;12.25;100.00;102589.81;4978113;28;20045;-79
2021/09/02 05:04:24;;;;;;;27.17;9.75;;;;;;;12.21;100.00;102580.47;4973431;28;20034;-79
2021/09/02 05:06:49;;;;;;;20.20;8.38;;;;;;;12.26;100.00;102596.72;4974379;28;20113;-79
2021/09/02 05:09:15;;;;;;;23.77;9.70;;;;;;;12.29;100.00;102595.69;4975857;28;20038;-79
2021/09/02 05:11:40;;;;;;;21.45;8.93;;;;;;;12.34;100.00;102598.78;4975736;28;20046;-80
2021/09/02 05:14:06;;;;;;;18.95;8.38;;;;;;;12.40;100.00;102593.94;4959893;28;20876;-79
2021/09/02 05:16:31;;;;;;;17.15;9.00;;;;;;;12.48;100.00;102600.44;4970629;28;20121;-79
2021/09/02 05:18:57;;;;;;;14.45;8.70;;;;;;;12.51;100.00;102597.53;4974346;28;20034;-80
2021/09/02 05:21:22;;;;;;;21.45;8.98;;;;;;;12.52;100.00;102600.06;4978134;28;20042;-79
2021/09/02 05:23:48;;;;;;;21.13;9.70;;;;;;;12.54;100.00;102597.34;4966398;28;20114;-78
2021/09/02 05:26:13;;;;;;;29.92;11.15;;;;;;;12.56;100.00;102592.78;4965891;28;20041;-80
2021/09/02 05:28:39;;;;;;;23.60;10.75;;;;;;;12.66;100.00;102604.34;4947137;28;20023;-78
2021/09/02 05:31:04;;;;;;;24.15;10.18;;;;;;;12.71;100.00;102609.25;4974007;28;20034;-78
2021/09/02 05:33:30;;;;;;;21.60;10.10;;;;;;;12.72;100.00;102601.22;4957328;28;20465;-79
2021/09/02 05:35:55;;;;;;;23.95;10.52;;;;;;;12.80;100.00;102608.53;4976352;28;20038;-83
2021/09/02 05:38:21;;;;;;;28.77;11.18;;;;;;;12.94;100.00;102607.50;4941595;28;20041;-83
2021/09/02 05:40:46;;;;;;;33.67;11.73;;;;;;;13.00;100.00;102605.25;4971972;28;20053;-84
2021/09/02 05:43:12;;;;;;;31.70;12.07;;;;;;;13.07;100.00;102604.78;4974925;28;20121;-81
2021/09/02 05:45:37;;;;;;;25.85;11.77;;;;;;;13.16;100.00;102604.91;4959453;28;20034;-82
2021/09/02 05:48:04;;;;;;;27.48;12.80;;;;;;;13.21;100.00;102601.94;4959180;28;20061;-81
2021/09/02 05:50:30;;;;;;;27.83;12.80;;;;;;;13.24;100.00;102605.16;4958840;28;20034;-82
2021/09/02 05:52:55;;;;;;;31.80;12.82;;;;;;;13.27;100.00;102603.25;4958883;28;20089;-81
2021/09/02 05:55:21;;;;;;;29.02;12.40;;;;;;;13.32;100.00;102609.03;4943319;28;20128;-82
2021/09/02 05:57:47;;;;;;;30.27;12.45;;;;;;;13.38;100.00;102606.75;4958520;28;20033;-81
2021/09/02 06:00:13;;;;;;;25.83;11.82;;;;;;;13.47;100.00;102614.88;4975236;28;20042;-82
2021/09/02 06:02:39;;;;;;;26.20;12.10;;;;;;;13.59;100.00;102616.56;4958136;28;20411;-81
2021/09/02 06:05:06;;;;;;;26.20;11.98;;;;;;;13.58;100.00;102607.84;4955341;28;20106;-82
2021/09/02 06:07:31;;;;;;;28.23;11.82;;;;;;;13.79;100.00;102617.66;4976128;28;20422;-82
2021/09/02 06:09:57;;;;;;;27.38;12.35;;;;;;;13.74;100.00;102614.53;4978671;28;20038;-82
2021/09/02 06:12:22;;;;;;;29.23;11.27;;;;;;;13.79;100.00;102621.13;4942651;28;20378;-81
2021/09/02 06:14:48;;;;;;;23.63;11.77;;;;;;;13.81;100.00;102603.38;4978955;28;20038;-82
2021/09/02 06:17:14;;;;;;;25.65;12.27;;;;;;;13.93;100.00;102608.63;4978938;28;20472;-82
2021/09/02 06:19:39;;;;;;;26.75;12.18;;;;;;;14.07;100.00;102623.34;4961860;28;20034;-82
2021/09/02 06:22:05;;;;;;;31.88;11.80;;;;;;;14.22;100.00;102627.38;4962705;28;20045;-82
2021/09/02 06:24:30;;;;;;;27.80;12.30;;;;;;;14.33;100.00;102635.25;4978539;28;20039;-81
2021/09/02 06:26:56;;;;;;;33.63;12.13;;;;;;;14.43;100.00;102637.16;4962373;28;20039;-83
2021/09/02 06:29:21;;;;;;;29.35;12.77;;;;;;;14.38;100.00;102629.63;4995422;28;20681;-83
2021/09/02 06:31:47;;;;;;;31.40;13.57;;;;;;;14.43;100.00;102638.00;4962713;28;20046;-81
2021/09/02 06:34:12;;;;;;;28.45;12.80;;;;;;;14.39;100.00;102647.97;4943611;28;20034;-83
2021/09/02 06:36:38;;;;;;;27.00;13.38;;;;;;;14.34;100.00;102642.22;4959434;28;20047;-81
2021/09/02 06:39:03;;;;;;;28.90;12.80;;;;;;;14.33;100.00;102631.78;4961112;28;20034;-81
2021/09/02 06:41:29;;;;;;;26.02;12.80;;;;;;;14.40;100.00;102638.25;4947428;28;20042;-83
2021/09/02 06:43:54;;;;;;;26.73;13.48;;;;;;;14.51;100.00;102648.78;4978167;28;20638;-83
2021/09/02 06:46:20;;;;;;;31.15;13.25;;;;;;;14.59;100.00;102645.53;4996115;28;20548;-83
2021/09/02 06:48:45;;;;;;;38.13;14.43;;;;;;;14.67;100.00;102650.16;4945600;28;20101;-82
2021/09/02 06:51:11;;;;;;;30.50;14.35;;;;;;;14.63;100.00;102646.94;4978628;28;20393;-82
2021/09/02 06:53:36;;;;;;;29.67;12.73;;;;;;;14.63;100.00;102649.59;4946360;28;20030;-82
2021/09/02 06:56:02;;;;;;;34.97;14.20;;;;;;;14.64;100.00;102646.00;4946408;28;20041;-81
2021/09/02 06:58:28;;;;;;;28.10;14.35;;;;;;;14.76;100.00;102644.13;4970209;28;20041;-82
2021/09/02 07:00:54;;;;;;;27.45;13.88;;;;;;;14.85;100.00;102658.38;4959640;28;20027;-82
2021/09/02 07:03:20;;;;;;;26.65;13.27;;;;;;;14.96;100.00;102650.41;4978037;28;20038;-82
2021/09/02 07:05:45;;;;;;;26.20;13.45;;;;;;;14.99;100.00;102642.19;4969827;28;20157;-82
2021/09/02 07:08:13;;;;;;;27.02;12.77;;;;;;;15.10;100.00;102651.88;4960841;28;20023;-80
2021/09/02 07:10:39;;;;;;;28.05;12.35;;;;;;;15.33;100.00;102665.75;4958908;28;20047;-81
2021/09/02 07:13:05;;;;;;;32.60;14.32;;;;;;;15.48;100.00;102659.19;4945616;28;20550;-80
2021/09/02 07:15:30;;;;;;;29.60;12.60;;;;;;;15.51;100.00;102660.72;4962575;28;20076;-80
2021/09/02 07:17:57;;;;;;;31.05;13.85;;;;;;;15.48;100.00;102667.13;4958564;28;20041;-81
2021/09/02 07:20:22;;;;;;;31.85;13.10;;;;;;;15.50;99.95;102665.19;4941813;28;20046;-81
2021/09/02 07:22:48;;;;;;;23.88;12.70;;;;;;;15.51;100.00;102663.38;4960416;28;20053;-80
2021/09/02 07:25:14;;;;;;;27.35;13.27;;;;;;;15.44;98.33;102678.91;4959315;28;20042;-80
2021/09/02 07:27:39;;;;;;;27.92;12.43;;;;;;;15.50;99.70;102681.06;4936758;28;20046;-82
2021/09/02 07:30:05;;;;;;;25.50;12.25;;;;;;;15.49;98.79;102676.72;4961754;28;20034;-81
2021/09/02 07:32:31;;;;;;;26.70;12.65;;;;;;;15.55;97.24;102686.75;4942971;28;20039;-81
2021/09/02 07:34:57;;;;;;;27.45;12.10;;;;;;;15.52;97.23;102681.75;4959114;28;20050;-80
2021/09/02 07:37:22;;;;;;;26.45;12.27;;;;;;;15.61;98.65;102685.41;4941751;28;20042;-82
2021/09/02 07:39:48;;;;;;;30.80;12.55;;;;;;;15.58;100.00;102681.22;4977300;28;20089;-82
2021/09/02 07:42:13;;;;;;;28.08;12.80;;;;;;;15.75;99.21;102694.84;4960979;28;20038;-80
2021/09/02 07:44:39;;;;;;;25.05;11.60;;;;;;;15.64;98.17;102693.06;4945343;28;20022;-82
2021/09/02 07:47:05;;;;;;;27.77;11.35;;;;;;;15.67;98.93;102695.47;4969243;28;20038;-82
2021/09/02 07:49:30;;;;;;;22.25;11.10;;;;;;;15.72;98.89;102692.41;4976633;28;20026;-81
2021/09/02 07:51:56;;;;;;;27.60;12.18;;;;;;;15.73;98.13;102681.72;4961607;28;20042;-82
2021/09/02 07:54:21;;;;;;;26.92;12.63;;;;;;;15.80;96.08;102697.91;4943238;28;20041;-82
2021/09/02 07:56:47;;;;;;;29.00;11.48;;;;;;;15.91;97.90;102691.69;4971301;28;20499;-81
2021/09/02 07:59:15;;;;;;;32.72;12.95;;;;;;;15.93;94.96;102692.38;4958575;28;20064;-81
2021/09/02 08:01:40;;;;;;;24.23;11.57;;;;;;;16.07;95.73;102697.31;4972185;28;20416;-80
2021/09/02 08:04:06;;;;;;;27.23;11.98;;;;;;;16.00;94.45;102692.69;4959624;28;20034;-81
2021/09/02 08:06:31;;;;;;;24.58;11.55;;;;;;;16.08;94.52;102695.50;4971003;28;20038;-82
2021/09/02 08:08:57;;;;;;;23.52;10.23;;;;;;;16.15;96.93;102686.03;4959044;28;20027;-81
2021/09/02 08:11:27;;;;;;;24.52;10.15;;;;;;;16.13;93.98;102685.34;4993741;28;20077;-82
2021/09/02 08:13:52;;;;;;;22.77;11.60;;;;;;;16.13;93.00;102682.69;4961825;28;20137;-82
2021/09/02 08:16:18;;;;;;;20.00;9.90;;;;;;;16.14;95.70;102700.22;4978972;28;20076;-82
2021/09/02 08:18:43;;;;;;;25.48;10.40;;;;;;;16.22;94.58;102688.97;4978922;28;20041;-82
2021/09/02 08:21:09;;;;;;;28.63;11.73;;;;;;;16.25;92.54;102689.53;4979650;28;20501;-81
2021/09/02 08:23:35;;;;;;;24.10;11.50;;;;;;;16.25;91.85;102684.22;4946172;28;20038;-83
2021/09/02 08:26:00;;;;;;;24.17;10.95;;;;;;;16.27;91.55;102700.81;4975722;28;20074;-80
2021/09/02 08:28:26;;;;;;;23.92;10.38;;;;;;;16.39;90.95;102698.91;4971917;28;20062;-81
2021/09/02 08:30:51;;;;;;;20.02;9.60;;;;;;;16.41;90.62;102696.13;4961557;28;20172;-81
2021/09/02 08:33:17;;;;;;;21.35;9.82;;;;;;;16.52;91.18;102696.00;4959360;28;20049;-80
2021/09/02 08:35:42;;;;;;;17.05;8.98;;;;;;;16.55;90.48;102695.72;4988474;28;20030;-81
2021/09/02 08:38:09;;;;;;;19.65;9.02;;;;;;;16.57;89.38;102698.22;4962955;28;20046;-81
2021/09/02 08:40:42;;;;;;;21.05;9.02;;;;;;;16.59;89.82;102691.81;4965026;28;20037;-81
2021/09/02 08:43:08;;;;;;;23.83;9.35;;;;;;;16.68;86.68;102698.91;4964063;28;20043;-81
2021/09/02 08:45:34;;;;;;;17.25;9.32;;;;;;;16.61;87.12;102687.19;4959367;28;20046;-80
2021/09/02 08:48:03;;;;;;;25.98;8.13;;;;;;;16.59;90.09;102683.84;4979240;28;20034;-82
2021/09/02 08:50:31;;;;;;;17.80;8.80;;;;;;;16.63;88.32;102689.72;4974481;28;20240;-81
2021/09/02 08:52:57;;;;;;;18.80;8.10;;;;;;;16.61;88.72;102695.16;4979566;28;20037;-79
2021/09/02 08:55:23;;;;;;;16.60;7.35;;;;;;;16.63;89.02;102701.16;4963602;28;20042;-82
2021/09/02 08:57:50;;;;;;;19.15;6.78;;;;;;;16.57;84.83;102699.06;4974497;28;20046;-82
2021/09/02 09:00:17;;;;;;;11.20;5.50;;;;;;;16.39;85.87;102690.97;4962494;28;20065;-80
2021/09/02 09:02:45;;;;;;;19.00;5.90;;;;;;;16.43;86.15;102687.06;4978682;28;20038;-81
2021/09/02 09:05:13;;;;;;;15.25;5.85;;;;;;;16.46;88.48;102696.53;4962380;28;20038;-81
2021/09/02 09:07:46;;;;;;;15.30;6.43;;;;;;;16.53;87.79;102698.50;4977641;28;20125;-83
2021/09/02 09:10:17;;;;;;;17.73;6.60;;;;;;;16.54;88.90;102699.34;4978437;28;20050;-82
2021/09/02 09:12:50;;;;;;;19.25;6.93;;;;;;;16.46;85.55;102699.19;4962033;28;20032;-79
2021/09/02 09:15:44;;;;;;;15.85;6.50;;;;;;;16.48;84.43;102695.44;4979427;28;20049;-81
2021/09/02 09:18:16;;;;;;;15.00;6.78;;;;;;;16.49;86.34;102689.16;4990058;28;20072;-82
2021/09/02 09:20:41;;;;;;;18.30;6.77;;;;;;;16.51;86.77;102684.56;4978646;28;20030;-82
2021/09/02 09:23:07;;;;;;;19.67;7.20;;;;;;;16.48;87.74;102689.28;4966940;28;20300;-84
2021/09/02 09:25:32;;;;;;;18.73;6.82;;;;;;;16.49;85.35;102694.44;4996264;28;20038;-81
2021/09/02 09:28:00;;;;;;;17.85;7.18;;;;;;;16.41;86.33;102701.44;4977911;28;20042;-83
2021/09/02 09:30:31;;;;;;;12.15;7.07;;;;;;;16.37;87.49;102703.50;4978467;28;20038;-82
2021/09/02 09:33:03;;;;;;;15.43;7.25;;;;;;;16.39;88.29;102706.00;4962449;28;20036;-83
2021/09/02 09:35:38;;;;;;;16.15;7.90;;;;;;;16.34;88.34;102703.78;4963526;28;20258;-82
2021/09/02 09:38:10;;;;;;;15.88;8.93;;;;;;;16.41;86.68;102704.91;4965320;28;20117;-83
2021/09/02 09:40:43;;;;;;;16.00;9.95;;;;;;;16.46;89.15;102712.44;4962919;28;20336;-81
2021/09/02 09:43:11;;;;;;;13.73;8.23;;;;;;;16.39;86.58;102698.06;4978166;28;20072;-82
2021/09/02 09:45:40;;;;;;;19.33;8.75;;;;;;;16.44;87.29;102719.69;4974566;28;20042;-82
2021/09/02 09:48:17;;;;;;;16.20;8.88;;;;;;;16.34;85.65;102719.66;4962512;28;20042;-83
2021/09/02 09:51:03;;;;;;;17.35;9.63;;;;;;;16.36;88.67;102723.00;4977398;28;20058;-82
2021/09/02 09:53:29;;;;;;;17.38;8.20;;;;;;;16.35;86.55;102722.19;4994411;28;20633;-81
2021/09/02 09:55:55;;;;;;;13.18;8.25;;;;;;;16.41;90.73;102728.75;4963377;28;20302;-81
2021/09/02 09:58:24;;;;;;;20.55;7.35;;;;;;;16.32;87.09;102725.09;4978244;28;20140;-82
2021/09/02 10:00:53;;;;;;;17.25;7.93;;;;;;;16.36;88.31;102728.31;4944530;28;20045;-81
2021/09/02 10:03:20;;;;;;;13.48;7.45;;;;;;;16.36;90.27;102728.31;4952794;28;20034;-81
2021/09/02 10:05:50;;;;;;;14.48;6.97;;;;;;;16.42;89.19;102734.88;4977740;28;20046;-81
2021/09/02 10:08:17;;;;;;;15.57;7.13;;;;;;;16.38;90.59;102738.78;4993515;28;20105;-80
2021/09/02 10:10:42;;;;;;;20.00;7.13;;;;;;;16.35;90.68;102738.06;4963000;28;20049;-82
2021/09/02 10:13:08;;;;;;;12.02;7.18;;;;;;;16.35;90.34;102738.06;4979255;28;20034;-81
2021/09/02 10:15:34;;;;;;;22.83;7.70;;;;;;;16.27;88.30;102729.94;4980059;28;20030;-83
2021/09/02 10:18:00;;;;;;;16.02;7.22;;;;;;;16.19;92.51;102728.97;4959931;28;20097;-80
2021/09/02 10:20:29;;;;;;;14.07;7.10;;;;;;;16.23;90.08;102730.38;4960131;28;20046;-83
2021/09/02 10:22:56;;;;;;;13.15;7.50;;;;;;;16.24;91.03;102726.75;4946350;28;20094;-82
2021/09/02 10:25:32;;;;;;;13.15;7.10;;;;;;;16.23;90.50;102728.56;4960045;28;20038;-84
2021/09/02 10:28:00;;;;;;;17.92;7.15;;;;;;;16.24;90.66;102722.28;4957585;28;20030;-84
2021/09/02 10:30:26;;;;;;;14.00;7.30;;;;;;;16.25;90.01;102726.59;4977644;28;20390;-82
2021/09/02 10:32:53;;;;;;;17.83;6.65;;;;;;;16.35;88.67;102737.25;4976192;28;20477;-82
2021/09/02 10:35:19;;;;;;;12.68;5.88;;;;;;;16.35;87.38;102742.53;4965962;28;20046;-80
2021/09/02 10:37:44;;;;;;;20.40;7.20;;;;;;;16.37;89.60;102740.59;4961389;28;20518;-82
2021/09/02 10:40:16;;;;;;;16.55;6.47;;;;;;;16.27;87.75;102737.88;4973085;28;20092;-81
2021/09/02 10:42:56;;;;;;;17.35;7.55;;;;;;;16.31;88.39;102730.50;4963817;28;20031;-81
2021/09/02 10:48:01;;;;;;;16.83;6.90;;;;;;;16.33;88.21;102734.72;4967097;28;20038;-83
2021/09/02 10:50:34;;;;;;;15.90;6.10;;;;;;;16.37;91.43;102732.63;4975960;28;20041;-83
2021/09/02 10:53:12;;;;;;;13.38;6.47;;;;;;;16.37;92.00;102734.44;4981192;28;20035;-86
2021/09/02 10:55:40;;;;;;;21.50;6.95;;;;;;;16.40;94.37;102736.81;4980645;28;20085;-84
2021/09/02 10:58:08;;;;;;;20.95;6.35;;;;;;;16.42;91.43;102722.44;4949244;28;20054;-87
2021/09/02 11:00:41;;;;;;;18.08;6.15;;;;;;;16.45;90.01;102734.59;4960060;28;20154;-83
2021/09/02 11:03:18;;;;;;;13.65;6.18;;;;;;;16.48;88.17;102736.97;4945686;28;20039;-84
2021/09/02 11:05:46;;;;;;;16.30;6.15;;;;;;;16.51;92.17;102737.53;4947703;28;20034;-85
2021/09/02 11:08:11;;;;;;;13.02;6.05;;;;;;;16.52;91.08;102717.19;4981610;28;20042;-84
2021/09/02 11:10:37;;;;;;;19.08;5.72;;;;;;;16.62;88.12;102741.03;4986236;28;20029;-83